Time;durP1;ratioP1;P1;durP2;ratioP2;P2;SDS_P1;SDS_P2;PMS_P1;PMS_P2;Temp;Humidity;BMP_temperature;BMP_pressure;BME280_temperature;BME280_humidity;BME280_pressure;Samples;Min_cycle;Max_cycle;Signal;HPM_P1;HPM_P2
2023/05/13 00:01:15;;;;;;;2.05;1.30;;;17.30;64.20;;;;;;5027660;28;20481;-68
2023/05/13 00:03:41;;;;;;;2.03;1.30;;;17.20;64.10;;;;;;5037964;28;20034;-67
2023/05/13 00:06:07;;;;;;;1.50;1.35;;;17.20;64.20;;;;;;5026587;28;20087;-68
2023/05/13 00:08:33;;;;;;;2.58;1.52;;;17.10;63.90;;;;;;5037579;28;20029;-69
2023/05/13 00:10:59;;;;;;;2.58;1.20;;;17.10;63.90;;;;;;5028992;28;20036;-75
2023/05/13 00:13:25;;;;;;;1.40;1.13;;;17.00;63.80;;;;;;5028965;28;20033;-74
2023/05/13 00:15:51;;;;;;;2.08;1.63;;;17.00;63.80;;;;;;5030401;28;20037;-76
2023/05/13 00:18:17;;;;;;;3.78;1.77;;;17.00;63.60;;;;;;5026777;28;20018;-75
2023/05/13 00:20:43;;;;;;;1.10;1.10;;;17.00;63.70;;;;;;5030906;28;20409;-74
2023/05/13 00:23:08;;;;;;;1.52;1.27;;;16.90;63.50;;;;;;5026628;28;20029;-68
2023/05/13 00:25:34;;;;;;;1.23;0.90;;;16.90;63.50;;;;;;5034909;28;20030;-75
2023/05/13 00:28:00;;;;;;;2.50;1.30;;;16.90;63.60;;;;;;5029279;28;20036;-75
2023/05/13 00:30:26;;;;;;;1.60;1.40;;;16.80;63.60;;;;;;5030668;28;20508;-75
2023/05/13 00:32:51;;;;;;;1.48;1.10;;;16.90;63.80;;;;;;5036425;28;20075;-75
2023/05/13 00:35:17;;;;;;;2.03;1.25;;;16.80;63.70;;;;;;5029498;28;20041;-68
2023/05/13 00:37:43;;;;;;;1.10;1.08;;;16.70;63.90;;;;;;5015883;28;20022;-73
2023/05/13 00:40:23;;;;;;;1.75;1.65;;;16.80;63.80;;;;;;5021250;28;20535;-74
2023/05/13 00:42:49;;;;;;;1.52;1.33;;;16.70;63.80;;;;;;5026890;28;20040;-75
2023/05/13 00:45:15;;;;;;;1.33;1.20;;;16.70;63.90;;;;;;5026385;28;20041;-75
2023/05/13 00:47:41;;;;;;;1.48;1.02;;;16.70;63.80;;;;;;5026759;28;20029;-75
2023/05/13 00:50:09;;;;;;;1.25;1.10;;;16.60;64.40;;;;;;5023157;28;20033;-76
2023/05/13 00:52:39;;;;;;;2.80;1.05;;;16.60;63.90;;;;;;5017405;28;20092;-74
2023/05/13 00:55:05;;;;;;;2.33;1.70;;;16.60;63.80;;;;;;5019392;28;20540;-68
2023/05/13 00:57:31;;;;;;;1.95;1.20;;;16.60;63.90;;;;;;5024152;28;20029;-73
2023/05/13 00:59:57;;;;;;;1.45;1.10;;;16.50;63.90;;;;;;5026524;28;20025;-67
2023/05/13 01:02:33;;;;;;;1.38;1.13;;;16.50;63.90;;;;;;5027098;28;20025;-67
2023/05/13 01:05:07;;;;;;;3.03;1.42;;;16.50;64.00;;;;;;5027670;28;20033;-68
2023/05/13 01:07:45;;;;;;;1.15;1.00;;;16.50;64.00;;;;;;5014963;28;20040;-67
2023/05/13 01:10:30;;;;;;;4.28;1.25;;;16.40;63.90;;;;;;5021237;28;20047;-67
2023/05/13 01:13:00;;;;;;;1.98;1.00;;;16.40;64.00;;;;;;5021644;28;20427;-67
2023/05/13 01:15:28;;;;;;;1.52;1.40;;;16.40;64.10;;;;;;5019722;28;20025;-76
2023/05/13 01:18:06;;;;;;;2.30;1.38;;;16.30;64.30;;;;;;5032722;28;20029;-75
2023/05/13 01:20:33;;;;;;;1.52;1.25;;;16.30;64.30;;;;;;5029580;28;20022;-75
2023/05/13 01:22:59;;;;;;;1.73;1.33;;;16.20;64.30;;;;;;5032570;28;20372;-68
2023/05/13 01:25:25;;;;;;;1.20;0.95;;;16.20;64.30;;;;;;5025011;28;20124;-68
2023/05/13 01:27:51;;;;;;;1.98;1.30;;;16.20;64.20;;;;;;5030033;28;20030;-68
2023/05/13 01:30:18;;;;;;;1.50;1.15;;;16.10;64.30;;;;;;5030129;28;20126;-68
2023/05/13 01:32:44;;;;;;;1.65;1.15;;;16.10;64.40;;;;;;5032366;28;20057;-68
2023/05/13 01:35:10;;;;;;;2.90;1.80;;;16.10;64.40;;;;;;5030023;28;20041;-75
2023/05/13 01:37:37;;;;;;;3.92;1.58;;;16.10;64.40;;;;;;5032711;28;20029;-75
2023/05/13 01:40:05;;;;;;;2.65;1.65;;;16.10;64.40;;;;;;5031785;28;20029;-75
2023/05/13 01:42:31;;;;;;;2.05;1.10;;;16.00;64.40;;;;;;5028491;28;20040;-75
2023/05/13 01:44:57;;;;;;;1.70;1.20;;;16.00;64.40;;;;;;5021689;28;20045;-74
2023/05/13 01:47:23;;;;;;;1.63;1.52;;;16.00;64.30;;;;;;5018679;28;20080;-74
2023/05/13 01:49:48;;;;;;;2.90;1.20;;;15.90;64.30;;;;;;5019790;28;20436;-68
2023/05/13 01:52:14;;;;;;;1.58;1.40;;;15.90;64.50;;;;;;5030922;28;20029;-75
2023/05/13 01:54:40;;;;;;;1.73;1.60;;;15.90;64.60;;;;;;5022379;28;20516;-75
2023/05/13 01:57:05;;;;;;;2.75;1.95;;;15.90;64.60;;;;;;5022686;28;20026;-75
2023/05/13 01:59:31;;;;;;;1.55;1.45;;;15.90;64.70;;;;;;5022756;28;20044;-68
2023/05/13 02:01:57;;;;;;;2.63;1.38;;;15.90;64.70;;;;;;5022905;28;20038;-75
2023/05/13 02:04:22;;;;;;;1.88;1.45;;;15.80;64.60;;;;;;5026131;28;20091;-75
2023/05/13 02:06:48;;;;;;;1.73;1.63;;;15.80;64.70;;;;;;5024211;28;20429;-75
2023/05/13 02:09:13;;;;;;;2.38;1.35;;;15.80;64.70;;;;;;5025496;28;20025;-68
2023/05/13 02:11:39;;;;;;;1.58;1.17;;;15.70;64.80;;;;;;5022741;28;20030;-68
2023/05/13 02:14:05;;;;;;;4.43;1.73;;;15.70;64.90;;;;;;5025883;28;20374;-75
2023/05/13 02:16:31;;;;;;;1.40;1.30;;;15.70;64.90;;;;;;5020148;28;20033;-68
2023/05/13 02:18:57;;;;;;;1.42;1.33;;;15.60;65.00;;;;;;5019148;28;20044;-68
2023/05/13 02:21:22;;;;;;;1.65;1.10;;;15.60;65.10;;;;;;5027108;28;20021;-68
2023/05/13 02:23:48;;;;;;;2.17;1.50;;;15.60;65.10;;;;;;5019419;28;20030;-75
2023/05/13 02:26:13;;;;;;;2.53;1.65;;;15.60;65.10;;;;;;5018459;28;20026;-75
2023/05/13 02:28:39;;;;;;;1.50;1.40;;;15.50;65.10;;;;;;5016947;28;20029;-68
2023/05/13 02:31:05;;;;;;;4.82;1.52;;;15.50;65.20;;;;;;5020813;28;20030;-68
2023/05/13 02:33:31;;;;;;;1.42;1.25;;;15.50;65.20;;;;;;5017216;28;20113;-68
2023/05/13 02:35:56;;;;;;;1.85;1.38;;;15.50;65.30;;;;;;5015280;28;20553;-68
2023/05/13 02:38:22;;;;;;;3.30;1.60;;;15.50;65.40;;;;;;5021239;28;20469;-68
2023/05/13 02:40:48;;;;;;;1.90;1.58;;;15.40;65.40;;;;;;5017196;28;20026;-68
2023/05/13 02:43:14;;;;;;;2.35;1.65;;;15.40;65.50;;;;;;5013669;28;20056;-68
2023/05/13 02:45:40;;;;;;;1.42;1.20;;;15.40;65.60;;;;;;5017370;28;20022;-68
2023/05/13 02:48:06;;;;;;;1.45;1.27;;;15.40;65.70;;;;;;5010236;28;20440;-75
2023/05/13 02:50:32;;;;;;;2.05;1.65;;;15.30;65.70;;;;;;5016329;28;20029;-74
2023/05/13 02:52:57;;;;;;;1.88;1.60;;;15.30;65.80;;;;;;5024643;28;20038;-75
2023/05/13 02:55:23;;;;;;;3.30;1.40;;;15.30;65.80;;;;;;5021144;28;20125;-74
2023/05/13 02:57:49;;;;;;;2.40;2.08;;;15.30;65.90;;;;;;5021275;28;20033;-75
2023/05/13 03:00:15;;;;;;;1.77;1.25;;;15.30;66.00;;;;;;5019688;28;20056;-75
2023/05/13 03:02:41;;;;;;;2.70;1.40;;;15.20;66.00;;;;;;5022741;28;20595;-68
2023/05/13 03:05:07;;;;;;;1.83;1.45;;;15.20;66.10;;;;;;5009962;28;20156;-68
2023/05/13 03:07:33;;;;;;;2.10;1.70;;;15.20;66.20;;;;;;5023807;28;20137;-68
2023/05/13 03:09:59;;;;;;;3.53;1.70;;;15.20;66.20;;;;;;5022231;28;20025;-67
2023/05/13 03:12:25;;;;;;;1.48;1.15;;;15.20;66.30;;;;;;5020327;28;20358;-67
2023/05/13 03:14:50;;;;;;;1.95;1.42;;;15.20;66.40;;;;;;5003824;28;20033;-67
2023/05/13 03:17:16;;;;;;;1.80;1.55;;;15.10;66.50;;;;;;5018342;28;20022;-68
2023/05/13 03:19:42;;;;;;;2.65;1.67;;;15.10;66.60;;;;;;5019198;28;20107;-74
2023/05/13 03:22:08;;;;;;;2.35;1.63;;;15.10;66.70;;;;;;5019094;28;20033;-74
2023/05/13 03:24:33;;;;;;;1.33;1.23;;;15.10;66.70;;;;;;5019802;28;20452;-74
2023/05/13 03:27:00;;;;;;;3.55;1.83;;;15.00;66.70;;;;;;5006367;28;20091;-74
2023/05/13 03:29:25;;;;;;;5.18;1.65;;;15.00;66.90;;;;;;5020851;28;20065;-75
2023/05/13 03:31:52;;;;;;;1.52;1.42;;;15.00;67.00;;;;;;5017470;28;20509;-67
2023/05/13 03:34:18;;;;;;;2.22;1.52;;;15.00;67.00;;;;;;5021071;28;20481;-68
2023/05/13 03:36:43;;;;;;;2.33;1.98;;;14.90;67.00;;;;;;5020904;28;20027;-67
2023/05/13 03:39:09;;;;;;;1.90;1.70;;;14.90;67.10;;;;;;5019586;28;20037;-67
2023/05/13 03:41:35;;;;;;;2.53;1.80;;;14.90;67.20;;;;;;5006797;28;20092;-67
2023/05/13 03:44:01;;;;;;;1.75;1.55;;;14.90;67.30;;;;;;5021504;28;20429;-67
2023/05/13 03:46:27;;;;;;;2.45;2.08;;;14.90;67.40;;;;;;5043257;28;20049;-67
2023/05/13 03:48:56;;;;;;;10.02;1.45;;;14.80;67.40;;;;;;5020136;28;20127;-67
2023/05/13 03:51:21;;;;;;;2.17;1.92;;;14.80;68.10;;;;;;5019323;28;20034;-67
2023/05/13 03:53:47;;;;;;;3.00;2.10;;;14.80;67.60;;;;;;5028326;28;20071;-67
2023/05/13 03:56:13;;;;;;;2.08;1.23;;;14.80;67.70;;;;;;5010141;28;20133;-67
2023/05/13 03:58:41;;;;;;;2.70;1.55;;;14.70;67.70;;;;;;5023949;28;20164;-74
2023/05/13 04:01:07;;;;;;;2.92;2.25;;;14.70;67.90;;;;;;5027429;28;20020;-74
2023/05/13 04:03:33;;;;;;;2.60;1.92;;;14.70;68.00;;;;;;5030577;28;20226;-74
2023/05/13 04:05:59;;;;;;;5.05;1.83;;;14.70;68.00;;;;;;5030117;28;20038;-73
2023/05/13 04:08:25;;;;;;;3.53;2.22;;;14.70;68.00;;;;;;5031914;28;20540;-74
2023/05/13 04:10:50;;;;;;;2.30;1.83;;;14.70;68.10;;;;;;5030688;28;20121;-74
2023/05/13 04:13:16;;;;;;;2.53;1.90;;;14.70;68.20;;;;;;5026403;28;20037;-67
2023/05/13 04:15:42;;;;;;;2.10;1.77;;;14.60;68.20;;;;;;5028425;28;20087;-73
2023/05/13 04:18:08;;;;;;;2.50;1.77;;;14.70;68.30;;;;;;5031026;28;20319;-74
2023/05/13 04:20:36;;;;;;;2.85;1.65;;;14.70;68.30;;;;;;5026085;28;20029;-73
2023/05/13 04:23:02;;;;;;;2.53;1.80;;;14.70;68.30;;;;;;5030078;28;20021;-74
2023/05/13 04:25:28;;;;;;;2.15;1.70;;;14.70;68.50;;;;;;5011492;28;20037;-67
2023/05/13 04:27:54;;;;;;;3.40;2.40;;;14.70;68.60;;;;;;5030478;28;21054;-67
2023/05/13 04:30:19;;;;;;;2.78;1.63;;;14.70;68.60;;;;;;4994479;28;20037;-74
2023/05/13 04:32:45;;;;;;;2.40;2.05;;;14.70;68.60;;;;;;5028104;28;20036;-67
2023/05/13 04:35:11;;;;;;;5.93;1.40;;;14.70;68.60;;;;;;5025918;28;20476;-67
2023/05/13 04:37:37;;;;;;;4.32;1.83;;;14.70;68.70;;;;;;5033166;28;20443;-73
2023/05/13 04:40:03;;;;;;;3.45;1.77;;;14.70;68.80;;;;;;5024002;28;20022;-74
2023/05/13 04:42:29;;;;;;;2.55;1.88;;;14.60;68.80;;;;;;5033066;28;20530;-73
2023/05/13 04:44:54;;;;;;;4.38;2.00;;;14.60;68.90;;;;;;5025449;28;20030;-67
2023/05/13 04:47:20;;;;;;;3.30;2.50;;;14.60;69.00;;;;;;5036237;28;20029;-67
2023/05/13 04:49:46;;;;;;;2.13;1.92;;;14.50;69.10;;;;;;5030425;28;20281;-67
2023/05/13 04:52:12;;;;;;;3.25;2.30;;;14.50;69.30;;;;;;5031548;28;20376;-67
2023/05/13 04:54:38;;;;;;;5.57;2.20;;;14.50;69.30;;;;;;5036746;28;20403;-67
2023/05/13 04:57:04;;;;;;;3.08;1.95;;;14.50;69.30;;;;;;5035463;28;20508;-67
2023/05/13 04:59:30;;;;;;;3.15;2.35;;;14.50;69.40;;;;;;5034919;28;20104;-74
2023/05/13 05:01:56;;;;;;;8.55;2.10;;;14.50;69.40;;;;;;5040797;28;20539;-75
2023/05/13 05:04:23;;;;;;;3.55;2.10;;;14.50;69.50;;;;;;5030524;28;20036;-74
2023/05/13 05:06:48;;;;;;;3.03;1.67;;;14.50;69.50;;;;;;5033559;28;20550;-75
2023/05/13 05:09:14;;;;;;;2.75;1.90;;;14.60;69.40;;;;;;5031550;28;20026;-74
2023/05/13 05:11:40;;;;;;;4.25;2.03;;;14.60;69.40;;;;;;5030687;28;20105;-75
2023/05/13 05:14:05;;;;;;;2.75;1.88;;;14.60;69.40;;;;;;5035838;28;20029;-67
2023/05/13 05:16:31;;;;;;;2.72;1.92;;;14.50;69.50;;;;;;5038008;28;20039;-66
2023/05/13 05:18:57;;;;;;;3.40;2.15;;;14.50;69.60;;;;;;5033703;28;20061;-67
2023/05/13 05:21:22;;;;;;;3.20;2.25;;;14.60;69.70;;;;;;5038338;28;20391;-67
2023/05/13 05:23:48;;;;;;;3.33;2.25;;;14.60;69.70;;;;;;5029812;28;20052;-67
2023/05/13 05:26:14;;;;;;;2.58;1.50;;;14.60;70.30;;;;;;5035627;28;20032;-67
2023/05/13 05:28:41;;;;;;;3.05;2.30;;;14.70;69.50;;;;;;5037944;28;20080;-67
2023/05/13 05:31:08;;;;;;;2.30;1.85;;;14.70;69.50;;;;;;5029541;28;20077;-67
2023/05/13 05:33:34;;;;;;;2.85;1.80;;;14.70;69.40;;;;;;5036864;28;20559;-75
2023/05/13 05:36:00;;;;;;;2.95;1.77;;;14.70;69.50;;;;;;5035010;28;20030;-67
2023/05/13 05:38:26;;;;;;;2.25;1.45;;;14.80;69.50;;;;;;5030734;28;20037;-67
2023/05/13 05:40:52;;;;;;;4.72;1.85;;;14.90;69.40;;;;;;5029973;28;20246;-75
2023/05/13 05:43:18;;;;;;;3.13;2.15;;;15.00;69.20;;;;;;5032632;28;20109;-67
2023/05/13 05:45:44;;;;;;;2.53;2.13;;;15.10;69.10;;;;;;5031546;28;20091;-67
2023/05/13 05:48:10;;;;;;;3.58;2.22;;;15.20;68.90;;;;;;5009196;28;20044;-67
2023/05/13 05:50:36;;;;;;;2.92;1.98;;;15.30;68.70;;;;;;5028970;28;20480;-74
2023/05/13 05:53:02;;;;;;;2.55;1.77;;;15.40;68.70;;;;;;5024463;28;20037;-74
2023/05/13 05:55:28;;;;;;;2.22;1.58;;;15.50;68.60;;;;;;5029438;28;20048;-75
2023/05/13 05:57:55;;;;;;;1.95;1.63;;;15.50;68.40;;;;;;5030411;28;20030;-75
2023/05/13 06:00:20;;;;;;;2.42;2.13;;;15.60;68.20;;;;;;5030097;28;20025;-75
2023/05/13 06:02:47;;;;;;;1.92;1.42;;;15.60;68.20;;;;;;5030553;28;20029;-75
2023/05/13 06:05:13;;;;;;;2.35;2.15;;;15.60;68.20;;;;;;5030309;28;20025;-67
2023/05/13 06:07:39;;;;;;;3.20;2.20;;;15.60;68.10;;;;;;5040225;28;20028;-67
2023/05/13 06:10:05;;;;;;;3.47;2.03;;;15.70;68.10;;;;;;5029872;28;20535;-75
2023/05/13 06:12:31;;;;;;;4.57;1.77;;;15.80;68.10;;;;;;5040446;28;20049;-75
2023/05/13 06:14:57;;;;;;;2.22;1.98;;;15.80;68.00;;;;;;5031340;28;20123;-75
2023/05/13 06:17:24;;;;;;;1.98;1.60;;;15.80;68.00;;;;;;5022923;28;20044;-75
2023/05/13 06:19:50;;;;;;;2.70;1.98;;;15.80;68.20;;;;;;5030655;28;20022;-75
2023/05/13 06:22:15;;;;;;;2.30;1.45;;;15.70;68.20;;;;;;5030433;28;20107;-75
2023/05/13 06:24:43;;;;;;;3.97;2.35;;;15.80;68.20;;;;;;5028156;28;20034;-68
2023/05/13 06:27:10;;;;;;;2.95;1.65;;;15.80;68.10;;;;;;5030786;28;20052;-66
2023/05/13 06:29:36;;;;;;;2.33;1.75;;;15.90;68.10;;;;;;5030953;28;20060;-66
2023/05/13 06:32:02;;;;;;;2.45;1.70;;;16.00;67.90;;;;;;5024894;28;20083;-66
2023/05/13 06:34:28;;;;;;;2.30;1.83;;;16.20;67.70;;;;;;5026716;28;20034;-66
2023/05/13 06:36:54;;;;;;;3.38;1.85;;;16.30;67.50;;;;;;5035535;28;20025;-66
2023/05/13 06:39:20;;;;;;;3.75;1.90;;;16.40;67.40;;;;;;5033655;28;20077;-70
2023/05/13 06:41:45;;;;;;;1.92;1.48;;;16.50;67.20;;;;;;5031408;28;20421;-67
2023/05/13 06:44:11;;;;;;;2.78;1.85;;;16.60;67.20;;;;;;5035420;28;20040;-68
2023/05/13 06:46:37;;;;;;;3.30;2.00;;;16.70;66.90;;;;;;5033512;28;20040;-66
2023/05/13 06:49:02;;;;;;;2.58;1.95;;;16.80;66.70;;;;;;5025947;28;20447;-63
2023/05/13 06:51:30;;;;;;;1.95;1.73;;;16.90;66.70;;;;;;5030314;28;20053;-64
2023/05/13 06:53:56;;;;;;;2.05;1.40;;;17.00;66.60;;;;;;5023382;28;20042;-69
2023/05/13 06:56:24;;;;;;;2.28;1.42;;;17.10;66.50;;;;;;5025609;28;20087;-73
2023/05/13 06:58:53;;;;;;;1.77;1.35;;;17.20;66.30;;;;;;5037454;28;20387;-69
2023/05/13 07:01:19;;;;;;;2.17;1.55;;;17.30;66.10;;;;;;5034853;28;20025;-69
2023/05/13 07:03:45;;;;;;;4.00;2.03;;;17.30;66.00;;;;;;5033681;28;20083;-68
2023/05/13 07:06:11;;;;;;;1.33;1.10;;;17.30;66.10;;;;;;5032794;28;20076;-65
2023/05/13 07:08:37;;;;;;;3.15;1.55;;;17.20;66.20;;;;;;5037728;28;20443;-74
2023/05/13 07:11:03;;;;;;;1.95;1.73;;;17.20;66.30;;;;;;5028477;28;20096;-76
2023/05/13 07:13:32;;;;;;;1.98;1.60;;;17.20;66.40;;;;;;5026933;28;20029;-65
2023/05/13 07:15:58;;;;;;;1.88;1.60;;;17.30;66.50;;;;;;5031211;28;20095;-68
2023/05/13 07:18:23;;;;;;;1.55;1.30;;;17.40;66.40;;;;;;5030857;28;20116;-66
2023/05/13 07:20:49;;;;;;;1.58;1.40;;;17.50;66.20;;;;;;5023393;28;20122;-66
2023/05/13 07:23:15;;;;;;;1.73;1.20;;;17.70;65.90;;;;;;5029058;28;20370;-76
2023/05/13 07:25:40;;;;;;;2.13;1.10;;;17.90;65.50;;;;;;5027850;28;20032;-66
2023/05/13 07:28:06;;;;;;;1.33;1.23;;;18.10;65.20;;;;;;5033009;28;20036;-66
2023/05/13 07:30:32;;;;;;;1.85;1.25;;;18.20;64.90;;;;;;5031857;28;20025;-66
2023/05/13 07:32:58;;;;;;;1.67;1.45;;;18.30;64.70;;;;;;5025724;28;20091;-76
2023/05/13 07:35:24;;;;;;;2.08;1.38;;;18.50;64.50;;;;;;5022797;28;20048;-77
2023/05/13 07:37:49;;;;;;;2.17;1.70;;;18.60;64.20;;;;;;5030243;28;20033;-77
2023/05/13 07:40:16;;;;;;;1.88;1.70;;;18.70;63.90;;;;;;5022720;28;20397;-77
2023/05/13 07:42:42;;;;;;;2.75;1.40;;;18.70;63.30;;;;;;5025348;28;20059;-76
2023/05/13 07:45:08;;;;;;;2.00;1.80;;;18.80;63.40;;;;;;5029189;28;20451;-77
2023/05/13 07:47:34;;;;;;;2.45;1.58;;;18.90;63.20;;;;;;5019521;28;20036;-76
2023/05/13 07:50:00;;;;;;;1.52;1.20;;;19.00;63.10;;;;;;5024626;28;20408;-77
2023/05/13 07:52:26;;;;;;;2.17;1.35;;;19.10;62.90;;;;;;5013760;28;20728;-76
2023/05/13 07:54:51;;;;;;;1.63;1.42;;;19.20;63.50;;;;;;5028375;28;20412;-76
2023/05/13 07:57:17;;;;;;;3.05;1.35;;;19.30;62.70;;;;;;5027144;28;20018;-77
2023/05/13 07:59:43;;;;;;;2.42;1.67;;;19.40;62.30;;;;;;5026029;28;20033;-77
2023/05/13 08:02:09;;;;;;;1.65;1.20;;;19.50;62.20;;;;;;5026389;28;20041;-77
2023/05/13 08:04:35;;;;;;;1.08;0.98;;;19.60;62.10;;;;;;5032491;28;20072;-77
2023/05/13 08:07:01;;;;;;;1.35;1.25;;;19.70;61.80;;;;;;5029211;28;20127;-78
2023/05/13 08:09:27;;;;;;;1.52;1.23;;;19.80;61.60;;;;;;5015722;28;20065;-67
2023/05/13 08:11:53;;;;;;;3.17;1.40;;;20.00;61.30;;;;;;5030268;28;20029;-67
2023/05/13 08:14:19;;;;;;;1.50;1.25;;;20.10;60.80;;;;;;5039665;28;20039;-77
2023/05/13 08:16:44;;;;;;;1.60;1.40;;;20.10;60.40;;;;;;5029364;28;20022;-78
2023/05/13 08:19:12;;;;;;;1.42;1.13;;;20.20;60.20;;;;;;5033047;28;20029;-78
2023/05/13 08:21:38;;;;;;;2.13;1.23;;;20.40;59.90;;;;;;5033786;28;20041;-78
2023/05/13 08:24:04;;;;;;;1.60;1.20;;;20.50;59.50;;;;;;5036212;28;20041;-66
2023/05/13 08:26:31;;;;;;;1.70;1.50;;;20.50;59.30;;;;;;5044054;28;20097;-77
2023/05/13 08:28:56;;;;;;;1.23;0.90;;;20.60;58.70;;;;;;5037672;28;20083;-67
2023/05/13 08:31:24;;;;;;;2.17;0.98;;;20.50;58.70;;;;;;5029243;28;20424;-67
2023/05/13 08:33:52;;;;;;;1.50;1.40;;;20.60;58.90;;;;;;5025582;28;20029;-67
2023/05/13 08:36:19;;;;;;;1.10;0.95;;;20.80;58.60;;;;;;5037549;28;20119;-78
2023/05/13 08:38:45;;;;;;;1.23;1.13;;;21.00;58.30;;;;;;5030338;28;20531;-78
2023/05/13 08:41:14;;;;;;;2.03;1.33;;;21.10;58.10;;;;;;5036972;28;20104;-67
2023/05/13 08:43:42;;;;;;;2.40;0.95;;;21.20;57.70;;;;;;5036751;28;20080;-67
2023/05/13 08:46:11;;;;;;;1.08;0.98;;;21.30;57.30;;;;;;5038355;28;20031;-67
2023/05/13 08:48:40;;;;;;;1.38;0.82;;;21.50;57.40;;;;;;5033239;28;20040;-78
2023/05/13 08:51:07;;;;;;;1.80;1.00;;;21.60;57.40;;;;;;5036012;28;20057;-78
2023/05/13 08:53:34;;;;;;;1.27;1.02;;;21.70;57.20;;;;;;5037434;28;20120;-77
2023/05/13 08:56:00;;;;;;;1.58;1.15;;;21.80;57.00;;;;;;5035163;28;20026;-78
2023/05/13 08:58:26;;;;;;;0.80;0.73;;;21.90;56.90;;;;;;5036189;28;20396;-78
2023/05/13 09:00:53;;;;;;;1.15;0.90;;;22.00;56.70;;;;;;5021633;28;20013;-78
2023/05/13 09:03:20;;;;;;;1.58;1.30;;;22.10;56.70;;;;;;5035611;28;20409;-78
2023/05/13 09:05:46;;;;;;;2.75;1.15;;;22.20;56.40;;;;;;5030877;28;20068;-78
2023/05/13 09:08:12;;;;;;;1.45;0.95;;;22.30;56.00;;;;;;5026550;28;20033;-78
2023/05/13 09:10:38;;;;;;;2.45;1.38;;;22.30;55.80;;;;;;5029796;28;20121;-77
2023/05/13 09:13:05;;;;;;;1.23;1.13;;;22.30;55.40;;;;;;5035084;28;20030;-78
2023/05/13 09:15:31;;;;;;;1.88;1.50;;;22.30;55.40;;;;;;5036620;28;20034;-78
2023/05/13 09:18:06;;;;;;;1.27;1.15;;;22.40;55.50;;;;;;5027346;28;20030;-66
2023/05/13 09:20:33;;;;;;;2.58;1.30;;;22.40;55.40;;;;;;5021202;28;20030;-66
2023/05/13 09:23:09;;;;;;;1.63;1.45;;;22.50;55.20;;;;;;5029395;28;20025;-66
2023/05/13 09:25:38;;;;;;;2.47;1.48;;;22.50;54.90;;;;;;5028655;28;20033;-67
2023/05/13 09:28:06;;;;;;;1.40;1.30;;;22.60;54.70;;;;;;5067881;28;20041;-77
2023/05/13 09:30:40;;;;;;;1.75;1.60;;;22.60;54.50;;;;;;5033975;28;20358;-77
2023/05/13 09:33:10;;;;;;;2.63;1.20;;;22.70;54.30;;;;;;5029784;28;20037;-67
2023/05/13 09:35:42;;;;;;;1.33;0.82;;;22.80;54.30;;;;;;5031898;28;20423;-67
2023/05/13 09:38:24;;;;;;;1.33;1.13;;;23.00;54.10;;;;;;5032086;28;20025;-67
2023/05/13 09:40:55;;;;;;;3.53;1.10;;;23.10;54.00;;;;;;5016509;28;20032;-67
2023/05/13 09:43:23;;;;;;;1.00;1.00;;;23.20;54.00;;;;;;5029814;28;20029;-66
2023/05/13 09:45:56;;;;;;;2.60;0.80;;;23.30;53.90;;;;;;5028841;28;20064;-66
2023/05/13 09:48:28;;;;;;;1.10;1.00;;;23.40;53.80;;;;;;5026355;28;20481;-67
2023/05/13 09:50:56;;;;;;;1.25;1.15;;;23.50;53.80;;;;;;5031343;28;20104;-69
2023/05/13 09:53:22;;;;;;;1.05;0.98;;;23.60;52.90;;;;;;5030596;28;20051;-81
2023/05/13 09:55:48;;;;;;;1.48;1.00;;;23.60;52.20;;;;;;5030631;28;20137;-71
2023/05/13 09:58:14;;;;;;;1.15;1.02;;;23.70;52.00;;;;;;5031534;28;20025;-67
2023/05/13 10:00:41;;;;;;;1.23;0.80;;;23.80;52.10;;;;;;5030380;28;20028;-74
2023/05/13 10:03:08;;;;;;;1.48;1.10;;;23.90;52.10;;;;;;5036303;28;20555;-66
2023/05/13 10:05:35;;;;;;;1.63;0.80;;;24.00;51.80;;;;;;5026176;28;20112;-76
2023/05/13 10:08:01;;;;;;;1.10;1.00;;;24.10;51.60;;;;;;5031463;28;20036;-76
2023/05/13 10:10:31;;;;;;;1.10;1.00;;;24.20;51.40;;;;;;5029353;28;20033;-76
2023/05/13 10:13:12;;;;;;;1.02;0.85;;;24.30;51.10;;;;;;5033507;28;20098;-76
2023/05/13 10:15:52;;;;;;;1.10;0.93;;;24.50;51.20;;;;;;5036305;28;20032;-77
2023/05/13 10:18:19;;;;;;;1.40;1.10;;;24.50;50.50;;;;;;5040608;28;20377;-76
2023/05/13 10:20:46;;;;;;;1.23;1.13;;;24.60;50.20;;;;;;5026095;28;20036;-76
2023/05/13 10:23:12;;;;;;;1.13;1.02;;;24.70;49.60;;;;;;5024136;28;20061;-65
2023/05/13 10:25:41;;;;;;;1.60;1.30;;;24.70;49.60;;;;;;5030551;28;20443;-66
2023/05/13 10:28:07;;;;;;;1.30;1.05;;;24.80;49.40;;;;;;5028723;28;20032;-66
2023/05/13 10:30:34;;;;;;;1.25;1.10;;;24.80;49.90;;;;;;5028174;28;20021;-65
2023/05/13 10:33:00;;;;;;;1.02;0.93;;;24.90;49.30;;;;;;5038060;28;20063;-65
2023/05/13 10:35:31;;;;;;;1.55;1.45;;;25.00;49.40;;;;;;5031980;28;20567;-65
2023/05/13 10:38:08;;;;;;;1.23;1.13;;;25.10;49.20;;;;;;5040297;28;20033;-65
2023/05/13 10:40:37;;;;;;;0.80;0.80;;;25.20;48.80;;;;;;5028657;28;20021;-65
2023/05/13 10:43:08;;;;;;;1.60;1.50;;;25.30;48.50;;;;;;5026967;28;20025;-76
2023/05/13 10:45:33;;;;;;;1.67;1.27;;;25.40;48.30;;;;;;5027954;28;20140;-75
2023/05/13 10:48:05;;;;;;;1.10;1.02;;;25.40;48.20;;;;;;5036275;28;20119;-75
2023/05/13 10:50:31;;;;;;;;;;;25.50;47.40;;;;;;5023522;28;20030;-66
2023/05/13 10:52:58;;;;;;;1.58;0.93;;;25.60;47.50;;;;;;5027601;28;20243;-65
2023/05/13 10:55:26;;;;;;;0.70;0.70;;;25.70;47.40;;;;;;5027051;28;20160;-65
2023/05/13 10:58:08;;;;;;;1.27;1.15;;;25.80;47.00;;;;;;5030680;28;20040;-66
2023/05/13 11:00:36;;;;;;;1.55;1.30;;;25.90;46.90;;;;;;5030039;28;20033;-66
2023/05/13 11:03:28;;;;;;;1.45;1.10;;;25.90;46.40;;;;;;5034224;28;20033;-66
2023/05/13 11:06:22;;;;;;;1.13;0.80;;;26.00;45.70;;;;;;5026358;28;20769;-66
2023/05/13 11:08:50;;;;;;;2.35;0.88;;;26.10;46.20;;;;;;5030439;28;20037;-77
2023/05/13 11:11:17;;;;;;;1.25;1.08;;;26.20;46.10;;;;;;5034467;28;21255;-77
2023/05/13 11:13:45;;;;;;;1.48;1.00;;;26.30;46.00;;;;;;5043825;28;20028;-77
2023/05/13 11:16:12;;;;;;;1.75;1.08;;;26.40;45.70;;;;;;5033720;28;20068;-77
2023/05/13 11:18:38;;;;;;;1.02;0.93;;;26.50;45.80;;;;;;5029465;28;20029;-77
2023/05/13 11:21:06;;;;;;;1.33;1.08;;;26.60;45.10;;;;;;5022794;28;20084;-77
2023/05/13 11:24:16;;;;;;;1.15;1.02;;;26.60;44.40;;;;;;5031697;28;20028;-76
2023/05/13 11:26:52;;;;;;;1.40;1.30;;;26.60;43.70;;;;;;4994562;28;20689;-75
2023/05/13 11:29:35;;;;;;;1.25;1.13;;;26.60;43.40;;;;;;4978249;28;20022;-81
2023/05/13 11:32:03;;;;;;;2.35;1.55;;;26.70;43.90;;;;;;5012393;28;20072;-77
2023/05/13 11:34:31;;;;;;;1.80;1.55;;;26.80;43.60;;;;;;5027362;28;20060;-79
2023/05/13 11:37:07;;;;;;;1.17;1.08;;;26.90;42.80;;;;;;5034319;28;20029;-77
2023/05/13 11:39:35;;;;;;;0.90;0.90;;;27.10;43.00;;;;;;5028448;28;20033;-75
2023/05/13 11:42:05;;;;;;;0.90;0.90;;;27.00;41.90;;;;;;5029746;28;20022;-74
2023/05/13 11:44:33;;;;;;;2.25;1.00;;;26.90;42.40;;;;;;5033690;28;20032;-65
2023/05/13 11:47:07;;;;;;;1.35;1.13;;;26.90;41.70;;;;;;5031173;28;20029;-65
2023/05/13 11:49:45;;;;;;;1.50;1.20;;;27.00;41.80;;;;;;5027364;28;20064;-65
2023/05/13 11:52:16;;;;;;;1.15;0.90;;;27.20;41.80;;;;;;5033374;28;20480;-75
2023/05/13 11:54:47;;;;;;;1.13;0.90;;;27.30;41.40;;;;;;5030213;28;20486;-75
2023/05/13 11:57:31;;;;;;;1.17;1.08;;;27.20;40.00;;;;;;5036886;28;20021;-75
2023/05/13 12:00:07;;;;;;;2.08;0.80;;;27.10;40.00;;;;;;5029658;28;20033;-74
2023/05/13 12:02:39;;;;;;;2.33;1.10;;;27.20;40.50;;;;;;5031959;28;20465;-74
2023/05/13 12:05:08;;;;;;;1.08;1.00;;;27.40;40.60;;;;;;5034689;28;20668;-74
2023/05/13 12:07:36;;;;;;;1.13;1.02;;;27.30;40.20;;;;;;5032403;28;20523;-76
2023/05/13 12:10:03;;;;;;;1.15;1.02;;;27.00;40.40;;;;;;5030819;28;20391;-75
2023/05/13 12:12:31;;;;;;;1.67;0.98;;;26.60;41.30;;;;;;5009191;28;20377;-66
2023/05/13 12:15:09;;;;;;;1.13;0.98;;;26.60;41.50;;;;;;5025794;28;20021;-76
2023/05/13 12:17:35;;;;;;;1.65;1.52;;;26.80;41.30;;;;;;5024327;28;20032;-66
2023/05/13 12:20:05;;;;;;;1.35;1.00;;;27.00;40.90;;;;;;5031675;28;20366;-75
2023/05/13 12:22:31;;;;;;;1.02;0.90;;;27.10;40.20;;;;;;5025521;28;20107;-75
2023/05/13 12:24:59;;;;;;;1.08;0.60;;;27.20;40.60;;;;;;5023117;28;20037;-66
2023/05/13 12:27:26;;;;;;;1.67;0.98;;;27.50;40.90;;;;;;5025716;28;20392;-67
2023/05/13 12:29:55;;;;;;;1.00;1.00;;;27.80;40.30;;;;;;5023504;28;20033;-67
2023/05/13 12:32:23;;;;;;;1.45;1.10;;;27.80;39.50;;;;;;5021559;28;20446;-73
2023/05/13 12:34:50;;;;;;;1.08;0.98;;;27.40;40.00;;;;;;5024737;28;20040;-68
2023/05/13 12:37:16;;;;;;;0.95;0.95;;;27.00;40.60;;;;;;5024160;28;20485;-68
2023/05/13 12:39:43;;;;;;;1.23;1.00;;;26.80;41.00;;;;;;5027084;28;20447;-68
2023/05/13 12:42:16;;;;;;;1.38;1.13;;;26.90;41.40;;;;;;5029751;28;20029;-69
2023/05/13 12:44:45;;;;;;;3.42;1.08;;;27.00;40.10;;;;;;5025364;28;20936;-78
2023/05/13 12:47:13;;;;;;;1.05;0.98;;;27.20;39.70;;;;;;5025401;28;20048;-79
2023/05/13 12:49:57;;;;;;;1.20;1.10;;;27.30;39.40;;;;;;5024969;28;20037;-68